Flinter Rose — PBUB — position and weather

sailwx.info

Track history (hours):
 
Tides and Currents Weather Stations Pressure Air Temp Water Temp Dewpoint Dewpoint Depression Visibility Wind Speed Wind Dir Waves Ship Positions

Flinter Rose

Last reported at 2016-Sep-21 05:29 UTC. Time now 2016-Sep-30 20:18 UTC.
Position N 37°53' E 015°40'.
Warning: this ship's position is 9 days out of date.

Length 101 m; draft 6.2 m.

Type: Cargo ship. MMSI: 246227000.

Date/timePositionNaut miles runAvg speedWind from/ knotsBaromVisibWave heightAir tempDewpointWater temp
2016-Sep-21 05:29N 37°53' E 015°40'19 9.7
2016-Sep-21 03:33N 38°11' E 015°36'9 8.6
2016-Sep-21 02:33N 38°19' E 015°39'  
2016-Sep-18 10:33N 43°18' E 004°59'8 0.4
2016-Sep-17 13:27N 43°26' E 004°53'0 0.0
2016-Sep-17 12:30N 43°26' E 004°53'0 0.0
2016-Sep-17 10:30N 43°26' E 004°53'0 0.0
2016-Sep-17 09:32N 43°26' E 004°53'0 0.0
2016-Sep-17 08:32N 43°26' E 004°53'0 0.0
2016-Sep-17 07:33N 43°26' E 004°53'0 0.1
2016-Sep-17 05:33N 43°25' E 004°53'2 1.6
2016-Sep-17 04:33N 43°24' E 004°55'0 0.0
2016-Sep-17 00:33N 43°24' E 004°55'0 0.0
2016-Sep-16 12:30N 43°24' E 004°55'0 0.1
2016-Sep-16 09:33N 43°25' E 004°55'0 0.0
2016-Sep-16 07:33N 43°25' E 004°55'0 0.0
2016-Sep-16 03:15N 43°25' E 004°55'0 0.0
2016-Sep-16 02:21N 43°25' E 004°55'0 0.0
2016-Sep-16 00:27N 43°25' E 004°55'0 0.0
2016-Sep-15 22:33N 43°25' E 004°55'0 0.0
2016-Sep-15 21:33N 43°25' E 004°55'0 0.1
2016-Sep-15 20:32N 43°25' E 004°55'246 9.1
2016-Sep-14 17:22N 42°54' E 010°30'  
Track history (hours):
 
Tides and Currents Weather Stations Pressure Air Temp Water Temp Dewpoint Dewpoint Depression Visibility Wind Speed Wind Dir Waves Ship Positions

Flinter Rose

Last reported at 2016-Sep-21 05:29 UTC. Time now 2016-Sep-30 20:18 UTC.
Position N 37°53' E 015°40'.
Warning: this ship's position is 9 days out of date.

Length 101 m; draft 6.2 m.

Type: Cargo ship. MMSI: 246227000.

Date/timePositionNaut miles runAvg speedWind from/ knotsBaromVisibWave heightAir tempDewpointWater temp
2016-Sep-21 05:29N 37°53' E 015°40'19 9.7
2016-Sep-21 03:33N 38°11' E 015°36'9 8.6
2016-Sep-21 02:33N 38°19' E 015°39'  
2016-Sep-18 10:33N 43°18' E 004°59'8 0.4
2016-Sep-17 13:27N 43°26' E 004°53'0 0.0
2016-Sep-17 12:30N 43°26' E 004°53'0 0.0
2016-Sep-17 10:30N 43°26' E 004°53'0 0.0
2016-Sep-17 09:32N 43°26' E 004°53'0 0.0
2016-Sep-17 08:32N 43°26' E 004°53'0 0.0
2016-Sep-17 07:33N 43°26' E 004°53'0 0.1
2016-Sep-17 05:33N 43°25' E 004°53'2 1.6
2016-Sep-17 04:33N 43°24' E 004°55'0 0.0
2016-Sep-17 00:33N 43°24' E 004°55'0 0.0
2016-Sep-16 12:30N 43°24' E 004°55'0 0.1
2016-Sep-16 09:33N 43°25' E 004°55'0 0.0
2016-Sep-16 07:33N 43°25' E 004°55'0 0.0
2016-Sep-16 03:15N 43°25' E 004°55'0 0.0
2016-Sep-16 02:21N 43°25' E 004°55'0 0.0
2016-Sep-16 00:27N 43°25' E 004°55'0 0.0
2016-Sep-15 22:33N 43°25' E 004°55'0 0.0
2016-Sep-15 21:33N 43°25' E 004°55'0 0.1
2016-Sep-15 20:32N 43°25' E 004°55'246 9.1
2016-Sep-14 17:22N 42°54' E 010°30'  

Dump ship's entire track history